createdAt,value
2023-03-26T00:01:37.507Z,100.00
2023-03-26T00:04:08.175Z,100.00
2023-03-26T00:06:39.573Z,100.00
2023-03-26T00:09:10.456Z,100.00
2023-03-26T00:11:38.908Z,100.00
2023-03-26T00:14:07.429Z,100.00
2023-03-26T00:16:37.242Z,100.00
2023-03-26T00:19:05.957Z,100.00
2023-03-26T00:21:34.463Z,100.00
2023-03-26T00:24:05.372Z,100.00
2023-03-26T00:26:34.748Z,100.00
2023-03-26T00:29:04.170Z,100.00
2023-03-26T00:31:32.959Z,100.00
2023-03-26T00:34:05.558Z,100.00
2023-03-26T00:36:35.832Z,100.00
2023-03-26T00:39:06.263Z,100.00
2023-03-26T00:41:37.267Z,100.00
2023-03-26T00:44:05.864Z,100.00
2023-03-26T00:46:34.383Z,100.00
2023-03-26T00:49:04.256Z,100.00
2023-03-26T00:51:33.901Z,100.00
2023-03-26T00:54:02.398Z,100.00
2023-03-26T00:56:30.965Z,100.00
2023-03-26T00:59:00.229Z,100.00
2023-03-26T01:01:31.527Z,100.00
2023-03-26T01:04:28.404Z,100.00
2023-03-26T01:06:59.980Z,100.00
2023-03-26T01:09:34.665Z,100.00
2023-03-26T01:12:04.471Z,100.00
2023-03-26T01:14:32.872Z,100.00
2023-03-26T01:17:03.592Z,100.00
2023-03-26T01:19:39.726Z,100.00
2023-03-26T01:22:11.188Z,100.00
2023-03-26T01:24:41.485Z,100.00
2023-03-26T01:27:33.588Z,100.00
2023-03-26T01:30:11.039Z,100.00
2023-03-26T01:32:49.645Z,100.00
2023-03-26T01:35:28.106Z,100.00
2023-03-26T01:38:11.822Z,100.00
2023-03-26T01:40:47.009Z,100.00
2023-03-26T01:43:26.167Z,100.00
2023-03-26T01:45:55.346Z,100.00
2023-03-26T01:48:31.544Z,100.00
2023-03-26T01:51:00.120Z,100.00
2023-03-26T01:53:28.694Z,100.00
2023-03-26T01:56:07.204Z,100.00
2023-03-26T01:58:42.622Z,100.00
2023-03-26T02:01:27.866Z,100.00
2023-03-26T02:04:02.815Z,100.00
2023-03-26T02:06:40.747Z,100.00
2023-03-26T02:09:12.551Z,100.00
2023-03-26T02:11:42.653Z,100.00
2023-03-26T02:14:11.826Z,100.00
2023-03-26T02:16:40.274Z,100.00
2023-03-26T02:19:15.428Z,100.00
2023-03-26T02:21:43.927Z,100.00
2023-03-26T02:24:12.363Z,100.00
2023-03-26T02:26:42.144Z,100.00
2023-03-26T02:29:10.974Z,100.00
2023-03-26T02:31:39.407Z,100.00
2023-03-26T02:34:07.894Z,100.00
2023-03-26T02:36:36.412Z,100.00
2023-03-26T02:39:05.372Z,100.00
2023-03-26T02:41:34.366Z,100.00
2023-03-26T02:44:04.529Z,100.00
2023-03-26T02:46:33.544Z,100.00
2023-03-26T02:49:02.056Z,100.00
2023-03-26T02:51:34.808Z,100.00
2023-03-26T02:54:03.464Z,100.00
2023-03-26T02:56:31.879Z,100.00
2023-03-26T02:59:00.361Z,100.00
2023-03-26T03:01:30.928Z,100.00
2023-03-26T03:04:01.492Z,100.00
2023-03-26T03:06:30.956Z,100.00
2023-03-26T03:08:59.547Z,100.00
2023-03-26T03:11:27.959Z,100.00
2023-03-26T03:13:56.339Z,100.00
2023-03-26T03:16:24.913Z,100.00
2023-03-26T03:18:57.794Z,100.00
2023-03-26T03:21:28.779Z,100.00
2023-03-26T03:24:00.008Z,100.00
2023-03-26T03:26:30.062Z,100.00
2023-03-26T03:28:59.563Z,100.00
2023-03-26T03:31:28.575Z,100.00
2023-03-26T03:33:58.427Z,100.00
2023-03-26T03:36:30.372Z,100.00
2023-03-26T03:39:02.768Z,100.00
2023-03-26T03:41:31.409Z,100.00
2023-03-26T03:44:01.577Z,100.00
2023-03-26T03:46:30.299Z,100.00
2023-03-26T03:49:00.366Z,100.00
2023-03-26T03:51:28.967Z,100.00
2023-03-26T03:53:57.502Z,100.00
2023-03-26T03:56:26.226Z,100.00
2023-03-26T03:58:54.678Z,100.00
2023-03-26T04:01:23.545Z,100.00
2023-03-26T04:03:52.326Z,100.00
2023-03-26T04:06:22.179Z,100.00
2023-03-26T04:08:50.616Z,100.00
2023-03-26T04:11:19.265Z,100.00
2023-03-26T04:13:47.778Z,100.00
2023-03-26T04:16:17.508Z,100.00
2023-03-26T04:18:46.426Z,100.00
2023-03-26T04:21:15.992Z,100.00
2023-03-26T04:23:46.309Z,100.00
2023-03-26T04:26:18.738Z,100.00
2023-03-26T04:28:53.302Z,100.00
2023-03-26T04:31:24.655Z,100.00
2023-03-26T04:33:55.899Z,100.00
2023-03-26T04:36:28.532Z,100.00
2023-03-26T04:39:02.395Z,100.00
2023-03-26T04:41:32.365Z,100.00
2023-03-26T04:44:01.878Z,100.00
2023-03-26T04:46:33.460Z,100.00
2023-03-26T04:49:02.791Z,100.00
2023-03-26T04:51:38.670Z,100.00
2023-03-26T04:54:09.457Z,100.00
2023-03-26T04:56:45.117Z,100.00
2023-03-26T04:59:17.589Z,100.00
2023-03-26T05:01:46.702Z,100.00
2023-03-26T05:04:15.175Z,100.00
2023-03-26T05:06:43.649Z,100.00
2023-03-26T05:09:14.391Z,100.00
2023-03-26T05:11:42.879Z,100.00
2023-03-26T05:14:11.283Z,100.00
2023-03-26T05:16:41.434Z,100.00
2023-03-26T05:19:09.994Z,100.00
2023-03-26T05:21:38.517Z,100.00
2023-03-26T05:24:07.750Z,100.00
2023-03-26T05:26:38.175Z,100.00
2023-03-26T05:29:06.629Z,100.00
2023-03-26T05:31:35.048Z,100.00
2023-03-26T05:34:03.543Z,100.00
2023-03-26T05:36:31.929Z,100.00
2023-03-26T05:39:00.357Z,100.00
2023-03-26T05:41:28.740Z,100.00
2023-03-26T05:43:58.505Z,100.00
2023-03-26T05:46:27.280Z,100.00
2023-03-26T05:48:55.834Z,100.00
2023-03-26T05:51:24.500Z,100.00
2023-03-26T05:53:52.937Z,100.00
2023-03-26T05:56:21.356Z,100.00
2023-03-26T05:58:51.492Z,100.00
2023-03-26T06:01:22.672Z,100.00
2023-03-26T06:03:51.487Z,100.00
2023-03-26T06:06:21.795Z,100.00
2023-03-26T06:09:02.382Z,100.00
2023-03-26T06:11:32.213Z,100.00
2023-03-26T06:14:00.776Z,100.00
2023-03-26T06:16:30.600Z,100.00
2023-03-26T06:18:59.585Z,100.00
2023-03-26T06:21:28.851Z,100.00
2023-03-26T06:23:57.509Z,100.00
2023-03-26T06:26:25.969Z,100.00
2023-03-26T06:28:54.446Z,100.00
2023-03-26T06:31:22.852Z,100.00
2023-03-26T06:33:53.263Z,100.00
2023-03-26T06:36:21.709Z,100.00
2023-03-26T06:38:50.093Z,100.00
2023-03-26T06:41:18.783Z,100.00
2023-03-26T06:43:47.161Z,100.00
2023-03-26T06:46:15.562Z,100.00
2023-03-26T06:48:44.009Z,100.00
2023-03-26T06:51:13.764Z,100.00
2023-03-26T06:53:42.573Z,100.00
2023-03-26T06:56:11.582Z,100.00
2023-03-26T06:58:40.042Z,100.00
2023-03-26T07:01:08.591Z,100.00
2023-03-26T07:03:37.138Z,100.00
2023-03-26T07:06:06.159Z,100.00
2023-03-26T07:08:35.969Z,100.00
2023-03-26T07:11:04.523Z,100.00
2023-03-26T07:13:32.925Z,100.00
2023-03-26T07:16:01.456Z,100.00
2023-03-26T07:18:29.969Z,100.00
2023-03-26T07:20:58.956Z,100.00
2023-03-26T07:23:27.912Z,100.00
2023-03-26T07:25:58.454Z,100.00
2023-03-26T07:28:36.191Z,100.00
2023-03-26T07:31:16.756Z,100.00
2023-03-26T07:33:50.568Z,100.00
2023-03-26T07:36:26.676Z,100.00
2023-03-26T07:39:12.719Z,100.00
2023-03-26T07:41:50.888Z,100.00
2023-03-26T07:44:40.961Z,100.00
2023-03-26T07:47:25.562Z,100.00
2023-03-26T07:49:57.932Z,100.00
2023-03-26T07:52:27.569Z,100.00
2023-03-26T07:54:56.712Z,100.00
2023-03-26T07:57:40.109Z,100.00
2023-03-26T08:00:16.106Z,100.00
2023-03-26T08:03:09.969Z,100.00
2023-03-26T08:05:47.345Z,100.00
2023-03-26T08:08:20.760Z,100.00
2023-03-26T08:11:03.782Z,100.00
2023-03-26T08:13:45.090Z,100.00
2023-03-26T08:16:19.427Z,100.00
2023-03-26T08:18:52.213Z,100.00
2023-03-26T08:21:25.542Z,100.00
2023-03-26T08:24:01.980Z,100.00
2023-03-26T08:26:38.633Z,100.00
2023-03-26T08:29:19.233Z,100.00
2023-03-26T08:31:50.061Z,100.00
2023-03-26T08:34:18.541Z,100.00
2023-03-26T08:36:47.625Z,100.00
2023-03-26T08:39:16.979Z,100.00
2023-03-26T08:42:16.995Z,100.00
2023-03-26T08:45:35.397Z,100.00
2023-03-26T08:48:43.627Z,100.00
2023-03-26T08:51:47.504Z,100.00
2023-03-26T08:54:32.616Z,100.00
2023-03-26T08:57:25.344Z,100.00
2023-03-26T09:00:13.605Z,100.00
2023-03-26T09:03:18.356Z,100.00
2023-03-26T09:06:11.017Z,100.00
2023-03-26T09:09:18.911Z,100.00
2023-03-26T09:12:15.749Z,100.00
2023-03-26T09:15:07.472Z,100.00
2023-03-26T09:18:08.617Z,100.00
2023-03-26T09:21:25.570Z,100.00
2023-03-26T09:24:25.407Z,100.00
2023-03-26T09:27:05.656Z,98.57
2023-03-26T09:29:56.901Z,100.00
2023-03-26T09:32:47.234Z,99.23
2023-03-26T09:35:39.699Z,99.22
2023-03-26T09:38:19.035Z,98.85
2023-03-26T09:40:56.934Z,98.18
2023-03-26T09:44:08.583Z,97.43
2023-03-26T09:46:48.408Z,100.00
2023-03-26T09:49:43.177Z,100.00
2023-03-26T09:52:50.900Z,100.00
2023-03-26T09:55:46.517Z,100.00
2023-03-26T09:58:47.355Z,100.00
2023-03-26T10:01:25.156Z,100.00
2023-03-26T10:04:02.628Z,100.00
2023-03-26T10:06:51.897Z,100.00
2023-03-26T10:09:37.221Z,100.00
2023-03-26T10:12:16.819Z,100.00
2023-03-26T10:14:55.843Z,100.00
2023-03-26T10:17:44.263Z,100.00
2023-03-26T10:20:35.385Z,100.00
2023-03-26T10:23:23.503Z,100.00
2023-03-26T10:26:07.289Z,100.00
2023-03-26T10:28:54.417Z,100.00
2023-03-26T10:31:39.345Z,100.00
2023-03-26T10:34:29.455Z,100.00
2023-03-26T10:37:07.873Z,100.00
2023-03-26T10:39:51.873Z,100.00
2023-03-26T10:42:37.276Z,100.00
2023-03-26T10:45:22.888Z,100.00
2023-03-26T10:48:04.236Z,100.00
2023-03-26T10:51:23.713Z,100.00
2023-03-26T10:53:58.141Z,100.00
2023-03-26T10:56:30.850Z,100.00
2023-03-26T10:59:08.441Z,100.00
2023-03-26T11:01:43.441Z,100.00
2023-03-26T11:04:34.267Z,100.00
2023-03-26T11:07:09.245Z,100.00
2023-03-26T11:09:45.538Z,100.00
2023-03-26T11:12:25.597Z,100.00
2023-03-26T11:15:13.606Z,100.00
2023-03-26T11:17:53.142Z,100.00
2023-03-26T11:20:34.344Z,100.00
2023-03-26T11:23:20.787Z,100.00
2023-03-26T11:26:05.997Z,100.00
2023-03-26T11:32:04.175Z,100.00
2023-03-26T11:34:36.777Z,100.00
2023-03-26T11:34:38.132Z,100.00
2023-03-26T11:37:15.357Z,100.00
2023-03-26T11:39:50.484Z,100.00
2023-03-26T11:42:22.896Z,100.00
2023-03-26T11:44:56.524Z,100.00
2023-03-26T11:47:33.303Z,100.00
2023-03-26T11:50:04.588Z,100.00
2023-03-26T11:52:34.453Z,100.00
2023-03-26T11:55:03.321Z,100.00
2023-03-26T11:57:35.785Z,100.00
2023-03-26T12:00:15.859Z,100.00
2023-03-26T12:02:45.828Z,99.84
2023-03-26T12:05:19.321Z,100.00
2023-03-26T12:07:54.555Z,100.00
2023-03-26T12:10:27.092Z,100.00
2023-03-26T12:12:59.247Z,100.00
2023-03-26T12:15:30.887Z,95.25
2023-03-26T12:18:18.785Z,97.26
2023-03-26T12:20:49.437Z,98.35
2023-03-26T12:23:39.070Z,100.00
2023-03-26T12:26:16.558Z,96.93
2023-03-26T12:28:46.732Z,98.39
2023-03-26T12:31:18.381Z,98.93
2023-03-26T12:34:04.291Z,97.35
2023-03-26T12:36:36.039Z,95.67
2023-03-26T12:40:08.794Z,90.97
2023-03-26T12:44:48.005Z,89.33
2023-03-26T12:45:22.124Z,88.80
2023-03-26T12:48:01.799Z,87.59
2023-03-26T12:50:43.481Z,87.25
2023-03-26T12:53:33.005Z,82.29
2023-03-26T12:56:13.395Z,83.73
2023-03-26T12:58:59.424Z,83.59
2023-03-26T13:01:39.727Z,83.97
2023-03-26T13:04:20.012Z,84.59
2023-03-26T13:07:00.293Z,84.05
2023-03-26T13:09:52.879Z,85.26
2023-03-26T13:12:40.425Z,82.66
2023-03-26T13:15:20.062Z,82.04
2023-03-26T13:17:59.646Z,81.89
2023-03-26T13:20:37.371Z,81.81
2023-03-26T13:23:13.508Z,80.42
2023-03-26T13:25:49.627Z,79.62
2023-03-26T13:28:34.508Z,78.03
2023-03-26T13:31:11.820Z,77.76
2023-03-26T13:33:49.964Z,77.87
2023-03-26T13:36:25.006Z,76.84
2023-03-26T13:39:11.171Z,75.29
2023-03-26T13:41:53.145Z,76.53
2023-03-26T13:44:34.897Z,75.73
2023-03-26T13:47:10.229Z,76.26
2023-03-26T13:49:43.789Z,76.35
2023-03-26T13:52:16.740Z,76.13
2023-03-26T13:54:50.744Z,76.40
2023-03-26T13:57:26.219Z,77.77
2023-03-26T14:00:01.168Z,77.63
2023-03-26T14:02:36.939Z,75.65
2023-03-26T14:05:12.308Z,75.75
2023-03-26T14:07:45.945Z,74.52
2023-03-26T14:10:20.748Z,73.82
2023-03-26T14:12:57.311Z,73.85
2023-03-26T14:15:32.168Z,74.21
2023-03-26T14:18:08.212Z,73.35
2023-03-26T14:21:02.375Z,73.90
2023-03-26T14:23:50.576Z,75.37
2023-03-26T14:26:27.676Z,71.76
2023-03-26T14:29:29.211Z,70.43
2023-03-26T14:32:10.817Z,68.99
2023-03-26T14:35:00.400Z,70.70
2023-03-26T14:37:41.333Z,70.20
2023-03-26T14:40:49.014Z,70.90
2023-03-26T14:43:38.152Z,72.51
2023-03-26T14:46:22.259Z,74.00
2023-03-26T14:49:12.655Z,75.14
2023-03-26T14:51:58.642Z,74.92
2023-03-26T14:54:31.542Z,76.29
2023-03-26T14:57:22.772Z,75.60
2023-03-26T15:00:20.931Z,76.51
2023-03-26T15:03:18.912Z,75.98
2023-03-26T15:06:07.825Z,75.07
2023-03-26T15:09:10.432Z,74.47
2023-03-26T15:11:50.388Z,74.16
2023-03-26T15:15:06.338Z,73.25
2023-03-26T15:17:55.706Z,73.46
2023-03-26T15:21:09.179Z,73.91
2023-03-26T15:24:30.636Z,73.75
2023-03-26T15:27:26.817Z,73.78
2023-03-26T15:30:32.890Z,74.61
2023-03-26T15:33:43.842Z,74.72
2023-03-26T15:36:53.929Z,74.83
2023-03-26T15:40:00.022Z,75.74
2023-03-26T15:42:38.405Z,75.84
2023-03-26T15:45:20.290Z,76.24
2023-03-26T15:48:09.523Z,76.62
2023-03-26T15:50:50.833Z,76.75
2023-03-26T15:53:30.336Z,76.92
2023-03-26T15:56:14.249Z,76.70
2023-03-26T15:58:50.548Z,76.67
2023-03-26T16:01:32.622Z,77.97
2023-03-26T16:04:14.428Z,77.10
2023-03-26T16:06:55.457Z,77.88
2023-03-26T16:09:42.185Z,78.72
2023-03-26T16:12:32.582Z,78.38
2023-03-26T16:15:26.221Z,78.54
2023-03-26T16:18:24.368Z,78.13
2023-03-26T16:20:55.132Z,77.27
2023-03-26T16:23:30.306Z,76.90
2023-03-26T16:26:12.256Z,77.66
2023-03-26T16:29:07.847Z,77.84
2023-03-26T16:31:39.401Z,76.96
2023-03-26T16:34:30.208Z,76.61
2023-03-26T16:37:00.619Z,77.07
2023-03-26T16:39:43.721Z,76.49
2023-03-26T16:42:33.958Z,77.38
2023-03-26T16:45:20.929Z,77.63
2023-03-26T16:48:00.932Z,77.60
2023-03-26T16:50:43.331Z,77.91
2023-03-26T16:53:29.847Z,78.62
2023-03-26T16:56:00.972Z,78.86
2023-03-26T16:58:36.781Z,79.06
2023-03-26T17:01:17.174Z,79.70
2023-03-26T17:03:53.156Z,79.89
2023-03-26T17:06:56.782Z,80.90
2023-03-26T17:09:35.196Z,81.47
2023-03-26T17:12:13.761Z,81.68
2023-03-26T17:14:56.548Z,82.08
2023-03-26T17:17:39.369Z,82.91
2023-03-26T17:20:18.871Z,83.67
2023-03-26T17:22:54.085Z,82.39
2023-03-26T17:25:29.804Z,81.56
2023-03-26T17:28:15.502Z,82.17
2023-03-26T17:31:02.012Z,82.17
2023-03-26T17:33:36.896Z,82.57
2023-03-26T17:36:38.491Z,82.69
2023-03-26T17:39:22.166Z,83.17
2023-03-26T17:41:54.948Z,84.21
2023-03-26T17:44:38.999Z,84.40
2023-03-26T17:47:17.621Z,84.39
2023-03-26T17:49:54.232Z,86.08
2023-03-26T17:52:27.028Z,84.28
2023-03-26T17:54:58.128Z,84.84
2023-03-26T17:57:29.026Z,85.80
2023-03-26T18:00:00.183Z,85.32
2023-03-26T18:02:36.903Z,83.83
2023-03-26T18:05:10.685Z,83.98
2023-03-26T18:08:12.044Z,82.25
2023-03-26T18:11:08.407Z,81.32
2023-03-26T18:14:07.437Z,80.60
2023-03-26T18:16:40.245Z,80.72
2023-03-26T18:19:18.409Z,80.87
2023-03-26T18:21:50.772Z,80.08
2023-03-26T18:24:24.834Z,80.95
2023-03-26T18:26:58.436Z,80.20
2023-03-26T18:29:29.283Z,79.67
2023-03-26T18:32:00.611Z,80.28
2023-03-26T18:34:31.649Z,80.04
2023-03-26T18:37:18.902Z,79.97
2023-03-26T18:39:59.110Z,79.35
2023-03-26T18:42:29.409Z,79.39
2023-03-26T18:44:59.742Z,78.56
2023-03-26T18:47:31.592Z,78.07
2023-03-26T18:50:01.221Z,77.94
2023-03-26T18:52:33.226Z,78.31
2023-03-26T18:55:04.400Z,77.02
2023-03-26T18:57:32.955Z,76.50
2023-03-26T19:00:18.439Z,77.24
2023-03-26T19:02:49.900Z,77.19
2023-03-26T19:05:20.215Z,78.20
2023-03-26T19:07:52.378Z,77.75
2023-03-26T19:10:22.213Z,78.28
2023-03-26T19:13:02.040Z,77.80
2023-03-26T19:15:33.659Z,78.29
2023-03-26T19:18:07.400Z,77.86
2023-03-26T19:20:42.513Z,77.82
2023-03-26T19:23:16.010Z,78.12
2023-03-26T19:25:48.541Z,78.01
2023-03-26T19:28:20.938Z,78.06
2023-03-26T19:30:55.454Z,77.91
2023-03-26T19:33:24.923Z,78.85
2023-03-26T19:36:01.140Z,77.53
2023-03-26T19:38:40.103Z,77.20
2023-03-26T19:41:21.968Z,77.21
2023-03-26T19:43:51.773Z,77.85
2023-03-26T19:46:22.512Z,76.77
2023-03-26T19:48:54.203Z,77.63
2023-03-26T19:51:25.726Z,76.77
2023-03-26T19:53:58.617Z,76.79
2023-03-26T19:56:28.666Z,77.07
2023-03-26T19:58:58.375Z,77.26
2023-03-26T20:01:29.643Z,77.12
2023-03-26T20:04:01.560Z,77.84
2023-03-26T20:06:41.691Z,78.41
2023-03-26T20:09:12.859Z,78.64
2023-03-26T20:11:42.010Z,78.92
2023-03-26T20:14:15.212Z,79.29
2023-03-26T20:16:45.422Z,80.22
2023-03-26T20:19:15.459Z,80.91
2023-03-26T20:21:44.852Z,80.79
2023-03-26T20:24:17.955Z,81.79
2023-03-26T20:26:47.209Z,81.73
2023-03-26T20:29:16.504Z,81.72
2023-03-26T20:31:45.888Z,82.55
2023-03-26T20:34:17.942Z,81.76
2023-03-26T20:36:47.090Z,82.55
2023-03-26T20:39:16.941Z,82.96
2023-03-26T20:41:47.697Z,83.36
2023-03-26T20:44:18.387Z,83.23
2023-03-26T20:46:48.556Z,83.57
2023-03-26T20:49:17.879Z,83.12
2023-03-26T20:51:46.989Z,83.60
2023-03-26T20:54:19.202Z,83.53
2023-03-26T20:56:49.215Z,84.26
2023-03-26T20:59:22.367Z,84.13
2023-03-26T21:01:51.828Z,83.18
2023-03-26T21:04:20.574Z,82.62
2023-03-26T21:06:49.297Z,83.23
2023-03-26T21:09:23.736Z,82.68
2023-03-26T21:12:00.448Z,82.61
2023-03-26T21:14:33.887Z,82.75
2023-03-26T21:17:02.729Z,83.05
2023-03-26T21:19:31.834Z,82.72
2023-03-26T21:22:10.032Z,82.72
2023-03-26T21:24:51.470Z,82.50
2023-03-26T21:27:28.481Z,82.82
2023-03-26T21:29:58.278Z,82.47
2023-03-26T21:32:27.365Z,82.87
2023-03-26T21:34:59.280Z,82.73
2023-03-26T21:37:28.858Z,83.03
2023-03-26T21:39:59.808Z,83.12
2023-03-26T21:42:29.454Z,83.20
2023-03-26T21:44:58.464Z,82.55
2023-03-26T21:47:27.405Z,83.18
2023-03-26T21:49:56.321Z,82.61
2023-03-26T21:52:25.391Z,83.29
2023-03-26T21:54:54.480Z,83.38
2023-03-26T21:57:34.983Z,82.80
2023-03-26T22:00:12.972Z,82.60
2023-03-26T22:02:52.612Z,83.12
2023-03-26T22:05:25.313Z,83.25
2023-03-26T22:07:57.203Z,82.82
2023-03-26T22:10:25.889Z,83.07
2023-03-26T22:12:55.673Z,82.83
2023-03-26T22:15:26.772Z,83.34
2023-03-26T22:17:55.784Z,83.57
2023-03-26T22:20:25.278Z,84.01
2023-03-26T22:22:55.858Z,84.53
2023-03-26T22:25:25.028Z,85.27
2023-03-26T22:27:53.902Z,85.00
2023-03-26T22:30:23.703Z,85.10
2023-03-26T22:32:52.279Z,85.46
2023-03-26T22:35:21.147Z,86.29
2023-03-26T22:37:49.817Z,86.40
2023-03-26T22:40:18.378Z,86.96
2023-03-26T22:42:46.776Z,87.25
2023-03-26T22:45:15.197Z,87.82
2023-03-26T22:47:45.065Z,87.94
2023-03-26T22:50:13.754Z,88.42
2023-03-26T22:52:42.497Z,87.97
2023-03-26T22:55:11.830Z,89.25
2023-03-26T22:57:41.398Z,89.37
2023-03-26T23:00:16.406Z,89.50
2023-03-26T23:02:47.165Z,89.51
2023-03-26T23:05:17.649Z,89.75
2023-03-26T23:07:47.342Z,89.28
2023-03-26T23:10:15.777Z,89.92
2023-03-26T23:12:44.149Z,89.54
2023-03-26T23:15:13.213Z,89.72
2023-03-26T23:17:41.682Z,90.19
2023-03-26T23:20:14.992Z,89.71
2023-03-26T23:22:44.129Z,89.52
2023-03-26T23:25:13.552Z,89.66
2023-03-26T23:27:42.018Z,89.43
2023-03-26T23:30:11.848Z,89.18
2023-03-26T23:32:41.040Z,89.21
2023-03-26T23:35:11.508Z,89.09
2023-03-26T23:37:42.324Z,89.97
2023-03-26T23:40:13.861Z,89.37
2023-03-26T23:42:42.462Z,89.89
2023-03-26T23:45:12.349Z,90.13
2023-03-26T23:47:42.258Z,90.17
2023-03-26T23:50:13.033Z,90.58
2023-03-26T23:52:41.571Z,90.80
2023-03-26T23:55:10.443Z,90.64
2023-03-26T23:57:38.879Z,90.38
